sensor_id;sensor_type;location;lat;lon;timestamp;P1;durP1;ratioP1;P2;durP2;ratioP2
68583;SDS011;55557;49.220;11.150;2022-09-02T00:01:17;4.43;;;1.70;;
68583;SDS011;55557;49.220;11.150;2022-09-02T00:03:44;1.67;;;1.57;;
68583;SDS011;55557;49.220;11.150;2022-09-02T00:06:11;2.97;;;1.80;;
68583;SDS011;55557;49.220;11.150;2022-09-02T00:08:37;5.83;;;1.77;;
68583;SDS011;55557;49.220;11.150;2022-09-02T00:11:04;3.20;;;1.73;;
68583;SDS011;55557;49.220;11.150;2022-09-02T00:13:30;2.20;;;1.87;;
68583;SDS011;55557;49.220;11.150;2022-09-02T00:15:57;2.03;;;1.70;;
68583;SDS011;55557;49.220;11.150;2022-09-02T00:18:23;4.27;;;1.80;;
68583;SDS011;55557;49.220;11.150;2022-09-02T00:20:50;4.50;;;1.90;;
68583;SDS011;55557;49.220;11.150;2022-09-02T00:23:16;2.07;;;1.80;;
68583;SDS011;55557;49.220;11.150;2022-09-02T00:25:43;2.17;;;1.97;;
68583;SDS011;55557;49.220;11.150;2022-09-02T00:28:09;5.93;;;1.77;;
68583;SDS011;55557;49.220;11.150;2022-09-02T00:30:36;2.20;;;1.83;;
68583;SDS011;55557;49.220;11.150;2022-09-02T00:33:02;1.80;;;1.63;;
68583;SDS011;55557;49.220;11.150;2022-09-02T00:35:28;3.07;;;1.73;;
68583;SDS011;55557;49.220;11.150;2022-09-02T00:37:54;3.20;;;1.90;;
68583;SDS011;55557;49.220;11.150;2022-09-02T00:40:20;2.60;;;1.87;;
68583;SDS011;55557;49.220;11.150;2022-09-02T00:42:47;3.80;;;1.93;;
68583;SDS011;55557;49.220;11.150;2022-09-02T00:45:13;3.80;;;1.60;;
68583;SDS011;55557;49.220;11.150;2022-09-02T00:47:39;3.63;;;1.87;;
68583;SDS011;55557;49.220;11.150;2022-09-02T00:50:07;2.23;;;1.80;;
68583;SDS011;55557;49.220;11.150;2022-09-02T00:52:36;2.70;;;1.83;;
68583;SDS011;55557;49.220;11.150;2022-09-02T00:55:15;2.23;;;1.63;;
68583;SDS011;55557;49.220;11.150;2022-09-02T00:57:43;2.53;;;1.80;;
68583;SDS011;55557;49.220;11.150;2022-09-02T01:02:37;5.27;;;2.83;;
68583;SDS011;55557;49.220;11.150;2022-09-02T01:05:04;2.97;;;2.33;;
68583;SDS011;55557;49.220;11.150;2022-09-02T01:07:31;3.00;;;2.70;;
68583;SDS011;55557;49.220;11.150;2022-09-02T01:10:03;4.60;;;2.40;;
68583;SDS011;55557;49.220;11.150;2022-09-02T01:12:29;4.47;;;2.70;;
68583;SDS011;55557;49.220;11.150;2022-09-02T01:14:56;3.30;;;2.10;;
68583;SDS011;55557;49.220;11.150;2022-09-02T01:17:22;3.60;;;2.60;;
68583;SDS011;55557;49.220;11.150;2022-09-02T01:19:51;2.67;;;2.33;;
68583;SDS011;55557;49.220;11.150;2022-09-02T01:22:19;2.40;;;2.20;;
68583;SDS011;55557;49.220;11.150;2022-09-02T01:24:45;4.30;;;2.90;;
68583;SDS011;55557;49.220;11.150;2022-09-02T01:27:15;5.27;;;3.00;;
68583;SDS011;55557;49.220;11.150;2022-09-02T01:29:42;3.13;;;2.30;;
68583;SDS011;55557;49.220;11.150;2022-09-02T01:32:08;3.93;;;2.93;;
68583;SDS011;55557;49.220;11.150;2022-09-02T01:34:34;3.37;;;2.87;;
68583;SDS011;55557;49.220;11.150;2022-09-02T01:36:59;3.40;;;2.93;;
68583;SDS011;55557;49.220;11.150;2022-09-02T01:39:25;4.33;;;2.80;;
68583;SDS011;55557;49.220;11.150;2022-09-02T01:41:51;5.10;;;3.00;;
68583;SDS011;55557;49.220;11.150;2022-09-02T01:44:17;5.17;;;3.37;;
68583;SDS011;55557;49.220;11.150;2022-09-02T01:46:44;3.07;;;2.70;;
68583;SDS011;55557;49.220;11.150;2022-09-02T01:49:10;5.43;;;2.60;;
68583;SDS011;55557;49.220;11.150;2022-09-02T01:51:36;3.80;;;3.00;;
68583;SDS011;55557;49.220;11.150;2022-09-02T01:54:02;3.73;;;2.90;;
68583;SDS011;55557;49.220;11.150;2022-09-02T01:56:28;3.47;;;2.80;;
68583;SDS011;55557;49.220;11.150;2022-09-02T01:58:54;4.67;;;2.93;;
68583;SDS011;55557;49.220;11.150;2022-09-02T02:01:21;5.30;;;2.90;;
68583;SDS011;55557;49.220;11.150;2022-09-02T02:03:47;3.30;;;2.53;;
68583;SDS011;55557;49.220;11.150;2022-09-02T02:06:14;3.67;;;2.43;;
68583;SDS011;55557;49.220;11.150;2022-09-02T02:08:40;3.60;;;2.70;;
68583;SDS011;55557;49.220;11.150;2022-09-02T02:11:07;3.33;;;2.90;;
68583;SDS011;55557;49.220;11.150;2022-09-02T02:13:33;3.97;;;2.87;;
68583;SDS011;55557;49.220;11.150;2022-09-02T02:15:59;6.73;;;2.83;;
68583;SDS011;55557;49.220;11.150;2022-09-02T02:18:26;3.73;;;2.90;;
68583;SDS011;55557;49.220;11.150;2022-09-02T02:20:52;6.03;;;2.70;;
68583;SDS011;55557;49.220;11.150;2022-09-02T02:23:18;4.30;;;3.00;;
68583;SDS011;55557;49.220;11.150;2022-09-02T02:25:44;3.10;;;2.70;;
68583;SDS011;55557;49.220;11.150;2022-09-02T02:28:09;3.63;;;2.77;;
68583;SDS011;55557;49.220;11.150;2022-09-02T02:30:35;3.50;;;3.03;;
68583;SDS011;55557;49.220;11.150;2022-09-02T02:33:01;6.73;;;3.33;;
68583;SDS011;55557;49.220;11.150;2022-09-02T02:35:27;5.13;;;2.93;;
68583;SDS011;55557;49.220;11.150;2022-09-02T02:37:53;2.90;;;2.60;;
68583;SDS011;55557;49.220;11.150;2022-09-02T02:40:20;2.77;;;2.30;;
68583;SDS011;55557;49.220;11.150;2022-09-02T02:42:47;4.40;;;2.53;;
68583;SDS011;55557;49.220;11.150;2022-09-02T02:45:13;6.70;;;2.57;;
68583;SDS011;55557;49.220;11.150;2022-09-02T02:47:40;3.43;;;2.40;;
68583;SDS011;55557;49.220;11.150;2022-09-02T02:50:07;2.40;;;2.20;;
68583;SDS011;55557;49.220;11.150;2022-09-02T02:52:34;5.33;;;2.77;;
68583;SDS011;55557;49.220;11.150;2022-09-02T02:55:00;5.30;;;2.13;;
68583;SDS011;55557;49.220;11.150;2022-09-02T02:57:26;4.90;;;2.60;;
68583;SDS011;55557;49.220;11.150;2022-09-02T02:59:52;3.90;;;2.60;;
68583;SDS011;55557;49.220;11.150;2022-09-02T03:02:18;3.87;;;2.57;;
68583;SDS011;55557;49.220;11.150;2022-09-02T03:04:44;2.60;;;2.40;;
68583;SDS011;55557;49.220;11.150;2022-09-02T03:07:10;2.60;;;2.20;;
68583;SDS011;55557;49.220;11.150;2022-09-02T03:09:36;3.33;;;2.63;;
68583;SDS011;55557;49.220;11.150;2022-09-02T03:12:02;6.13;;;2.53;;
68583;SDS011;55557;49.220;11.150;2022-09-02T03:14:28;4.47;;;3.20;;
68583;SDS011;55557;49.220;11.150;2022-09-02T03:16:55;2.57;;;2.37;;
68583;SDS011;55557;49.220;11.150;2022-09-02T03:19:21;3.07;;;2.50;;
68583;SDS011;55557;49.220;11.150;2022-09-02T03:21:47;2.97;;;2.30;;
68583;SDS011;55557;49.220;11.150;2022-09-02T03:24:13;2.43;;;2.03;;
68583;SDS011;55557;49.220;11.150;2022-09-02T03:26:40;2.30;;;2.10;;
68583;SDS011;55557;49.220;11.150;2022-09-02T03:29:06;2.73;;;2.33;;
68583;SDS011;55557;49.220;11.150;2022-09-02T03:31:32;4.37;;;2.40;;
68583;SDS011;55557;49.220;11.150;2022-09-02T03:33:58;4.30;;;2.30;;
68583;SDS011;55557;49.220;11.150;2022-09-02T03:36:26;2.37;;;2.07;;
68583;SDS011;55557;49.220;11.150;2022-09-02T03:38:52;2.27;;;1.97;;
68583;SDS011;55557;49.220;11.150;2022-09-02T03:41:18;2.87;;;2.40;;
68583;SDS011;55557;49.220;11.150;2022-09-02T03:43:44;4.60;;;2.40;;
68583;SDS011;55557;49.220;11.150;2022-09-02T03:46:10;3.60;;;2.53;;
68583;SDS011;55557;49.220;11.150;2022-09-02T03:48:37;3.07;;;2.57;;
68583;SDS011;55557;49.220;11.150;2022-09-02T03:51:04;3.33;;;2.40;;
68583;SDS011;55557;49.220;11.150;2022-09-02T03:53:30;5.87;;;2.30;;
68583;SDS011;55557;49.220;11.150;2022-09-02T03:55:57;2.60;;;2.30;;
68583;SDS011;55557;49.220;11.150;2022-09-02T03:58:23;3.97;;;2.40;;
68583;SDS011;55557;49.220;11.150;2022-09-02T04:00:50;2.80;;;2.23;;
68583;SDS011;55557;49.220;11.150;2022-09-02T04:03:16;2.50;;;2.30;;
68583;SDS011;55557;49.220;11.150;2022-09-02T04:05:44;4.20;;;2.57;;
68583;SDS011;55557;49.220;11.150;2022-09-02T04:08:11;3.90;;;2.70;;
68583;SDS011;55557;49.220;11.150;2022-09-02T04:10:37;4.23;;;2.33;;
68583;SDS011;55557;49.220;11.150;2022-09-02T04:13:03;4.50;;;2.37;;
68583;SDS011;55557;49.220;11.150;2022-09-02T04:15:29;3.97;;;2.90;;
68583;SDS011;55557;49.220;11.150;2022-09-02T04:17:55;2.73;;;2.37;;
68583;SDS011;55557;49.220;11.150;2022-09-02T04:20:21;2.87;;;2.53;;
68583;SDS011;55557;49.220;11.150;2022-09-02T04:22:47;3.67;;;2.73;;
68583;SDS011;55557;49.220;11.150;2022-09-02T04:25:13;6.07;;;2.77;;
68583;SDS011;55557;49.220;11.150;2022-09-02T04:27:39;2.90;;;2.47;;
68583;SDS011;55557;49.220;11.150;2022-09-02T04:30:06;5.70;;;2.50;;
68583;SDS011;55557;49.220;11.150;2022-09-02T04:32:32;3.00;;;2.70;;
68583;SDS011;55557;49.220;11.150;2022-09-02T04:34:58;3.10;;;2.43;;
68583;SDS011;55557;49.220;11.150;2022-09-02T04:37:25;4.00;;;2.63;;
68583;SDS011;55557;49.220;11.150;2022-09-02T04:39:51;3.37;;;2.77;;
68583;SDS011;55557;49.220;11.150;2022-09-02T04:42:17;3.23;;;2.50;;
68583;SDS011;55557;49.220;11.150;2022-09-02T04:44:43;4.47;;;2.67;;
68583;SDS011;55557;49.220;11.150;2022-09-02T04:47:10;4.03;;;2.83;;
68583;SDS011;55557;49.220;11.150;2022-09-02T04:49:36;4.70;;;2.43;;
68583;SDS011;55557;49.220;11.150;2022-09-02T04:52:02;4.03;;;2.87;;
68583;SDS011;55557;49.220;11.150;2022-09-02T04:54:28;3.00;;;2.67;;
68583;SDS011;55557;49.220;11.150;2022-09-02T04:56:54;4.57;;;2.77;;
68583;SDS011;55557;49.220;11.150;2022-09-02T04:59:20;6.30;;;3.03;;
68583;SDS011;55557;49.220;11.150;2022-09-02T05:01:46;4.90;;;3.30;;
68583;SDS011;55557;49.220;11.150;2022-09-02T05:04:14;4.83;;;3.30;;
68583;SDS011;55557;49.220;11.150;2022-09-02T05:06:40;3.80;;;2.83;;
68583;SDS011;55557;49.220;11.150;2022-09-02T05:09:06;2.93;;;2.63;;
68583;SDS011;55557;49.220;11.150;2022-09-02T05:11:32;2.53;;;2.27;;
68583;SDS011;55557;49.220;11.150;2022-09-02T05:13:59;3.37;;;2.60;;
68583;SDS011;55557;49.220;11.150;2022-09-02T05:16:27;3.40;;;2.70;;
68583;SDS011;55557;49.220;11.150;2022-09-02T05:18:55;4.43;;;2.97;;
68583;SDS011;55557;49.220;11.150;2022-09-02T05:21:21;2.70;;;2.50;;
68583;SDS011;55557;49.220;11.150;2022-09-02T05:23:48;2.47;;;2.17;;
68583;SDS011;55557;49.220;11.150;2022-09-02T05:26:14;5.43;;;2.67;;
68583;SDS011;55557;49.220;11.150;2022-09-02T05:28:40;4.47;;;2.70;;
68583;SDS011;55557;49.220;11.150;2022-09-02T05:31:12;5.20;;;2.33;;
68583;SDS011;55557;49.220;11.150;2022-09-02T05:33:39;4.20;;;3.00;;
68583;SDS011;55557;49.220;11.150;2022-09-02T05:36:06;3.73;;;3.03;;
68583;SDS011;55557;49.220;11.150;2022-09-02T05:38:32;3.10;;;2.80;;
68583;SDS011;55557;49.220;11.150;2022-09-02T05:41:03;3.13;;;2.57;;
68583;SDS011;55557;49.220;11.150;2022-09-02T05:43:30;4.03;;;2.90;;
68583;SDS011;55557;49.220;11.150;2022-09-02T05:45:56;3.50;;;2.67;;
68583;SDS011;55557;49.220;11.150;2022-09-02T05:48:23;5.37;;;2.83;;
68583;SDS011;55557;49.220;11.150;2022-09-02T05:51:08;3.10;;;2.80;;
68583;SDS011;55557;49.220;11.150;2022-09-02T05:53:34;4.67;;;2.77;;
68583;SDS011;55557;49.220;11.150;2022-09-02T05:56:02;3.13;;;2.83;;
68583;SDS011;55557;49.220;11.150;2022-09-02T05:58:29;4.07;;;2.60;;
68583;SDS011;55557;49.220;11.150;2022-09-02T06:00:56;4.07;;;2.80;;
68583;SDS011;55557;49.220;11.150;2022-09-02T06:03:22;3.87;;;2.83;;
68583;SDS011;55557;49.220;11.150;2022-09-02T06:05:55;3.53;;;2.90;;
68583;SDS011;55557;49.220;11.150;2022-09-02T06:11:25;4.23;;;3.10;;
68583;SDS011;55557;49.220;11.150;2022-09-02T06:13:52;3.60;;;3.13;;
68583;SDS011;55557;49.220;11.150;2022-09-02T06:16:20;4.40;;;3.17;;
68583;SDS011;55557;49.220;11.150;2022-09-02T06:18:46;12.73;;;3.33;;
68583;SDS011;55557;49.220;11.150;2022-09-02T06:21:13;6.63;;;3.03;;
68583;SDS011;55557;49.220;11.150;2022-09-02T06:23:39;4.60;;;2.87;;
68583;SDS011;55557;49.220;11.150;2022-09-02T06:26:06;7.37;;;3.67;;
68583;SDS011;55557;49.220;11.150;2022-09-02T06:28:33;13.43;;;2.93;;
68583;SDS011;55557;49.220;11.150;2022-09-02T06:30:59;6.57;;;2.73;;
68583;SDS011;55557;49.220;11.150;2022-09-02T06:33:25;3.47;;;2.47;;
68583;SDS011;55557;49.220;11.150;2022-09-02T06:35:51;4.33;;;2.60;;
68583;SDS011;55557;49.220;11.150;2022-09-02T06:38:17;11.83;;;4.27;;
68583;SDS011;55557;49.220;11.150;2022-09-02T06:40:48;6.17;;;3.00;;
68583;SDS011;55557;49.220;11.150;2022-09-02T06:43:14;4.73;;;2.77;;
68583;SDS011;55557;49.220;11.150;2022-09-02T06:45:40;6.73;;;2.50;;
68583;SDS011;55557;49.220;11.150;2022-09-02T06:48:07;3.60;;;2.40;;
68583;SDS011;55557;49.220;11.150;2022-09-02T06:50:36;3.30;;;1.93;;
68583;SDS011;55557;49.220;11.150;2022-09-02T06:53:02;2.43;;;1.40;;
68583;SDS011;55557;49.220;11.150;2022-09-02T06:55:31;2.10;;;1.50;;
68583;SDS011;55557;49.220;11.150;2022-09-02T06:57:58;1.40;;;1.30;;
68583;SDS011;55557;49.220;11.150;2022-09-02T07:00:24;2.40;;;1.47;;
68583;SDS011;55557;49.220;11.150;2022-09-02T07:02:50;3.03;;;1.30;;
68583;SDS011;55557;49.220;11.150;2022-09-02T07:05:36;1.43;;;1.20;;
68583;SDS011;55557;49.220;11.150;2022-09-02T07:08:02;4.20;;;1.30;;
68583;SDS011;55557;49.220;11.150;2022-09-02T07:10:28;2.17;;;1.30;;
68583;SDS011;55557;49.220;11.150;2022-09-02T07:12:55;2.67;;;1.53;;
68583;SDS011;55557;49.220;11.150;2022-09-02T07:15:21;2.60;;;1.13;;
68583;SDS011;55557;49.220;11.150;2022-09-02T07:17:47;4.53;;;1.33;;
68583;SDS011;55557;49.220;11.150;2022-09-02T07:20:14;2.17;;;1.13;;
68583;SDS011;55557;49.220;11.150;2022-09-02T07:22:40;7.10;;;1.03;;
68583;SDS011;55557;49.220;11.150;2022-09-02T07:25:07;1.37;;;1.23;;
68583;SDS011;55557;49.220;11.150;2022-09-02T07:27:33;1.47;;;1.00;;
68583;SDS011;55557;49.220;11.150;2022-09-02T07:30:00;2.87;;;1.17;;
68583;SDS011;55557;49.220;11.150;2022-09-02T07:32:29;5.33;;;1.53;;
68583;SDS011;55557;49.220;11.150;2022-09-02T07:34:55;1.10;;;1.00;;
68583;SDS011;55557;49.220;11.150;2022-09-02T07:37:22;2.43;;;1.20;;
68583;SDS011;55557;49.220;11.150;2022-09-02T07:39:48;2.40;;;1.10;;
68583;SDS011;55557;49.220;11.150;2022-09-02T07:42:14;1.57;;;1.17;;
68583;SDS011;55557;49.220;11.150;2022-09-02T07:44:40;0.93;;;0.93;;
68583;SDS011;55557;49.220;11.150;2022-09-02T07:47:07;1.67;;;1.30;;
68583;SDS011;55557;49.220;11.150;2022-09-02T07:49:33;5.30;;;1.40;;
68583;SDS011;55557;49.220;11.150;2022-09-02T07:51:59;2.37;;;1.03;;
68583;SDS011;55557;49.220;11.150;2022-09-02T07:54:25;1.03;;;1.00;;
68583;SDS011;55557;49.220;11.150;2022-09-02T07:56:51;2.87;;;1.07;;
68583;SDS011;55557;49.220;11.150;2022-09-02T07:59:18;1.27;;;1.10;;
68583;SDS011;55557;49.220;11.150;2022-09-02T08:01:45;1.33;;;1.03;;
68583;SDS011;55557;49.220;11.150;2022-09-02T08:04:12;1.00;;;0.90;;
68583;SDS011;55557;49.220;11.150;2022-09-02T08:06:38;1.27;;;1.07;;
68583;SDS011;55557;49.220;11.150;2022-09-02T08:09:05;2.67;;;1.10;;
68583;SDS011;55557;49.220;11.150;2022-09-02T08:11:35;2.23;;;1.20;;
68583;SDS011;55557;49.220;11.150;2022-09-02T08:14:02;1.97;;;1.00;;
68583;SDS011;55557;49.220;11.150;2022-09-02T08:16:28;2.23;;;0.70;;
68583;SDS011;55557;49.220;11.150;2022-09-02T08:18:55;3.27;;;1.30;;
68583;SDS011;55557;49.220;11.150;2022-09-02T08:21:22;1.30;;;1.20;;
68583;SDS011;55557;49.220;11.150;2022-09-02T08:23:49;1.10;;;0.90;;
68583;SDS011;55557;49.220;11.150;2022-09-02T08:26:16;2.13;;;1.20;;
68583;SDS011;55557;49.220;11.150;2022-09-02T08:28:42;4.27;;;2.10;;
68583;SDS011;55557;49.220;11.150;2022-09-02T08:31:08;2.03;;;1.10;;
68583;SDS011;55557;49.220;11.150;2022-09-02T08:33:35;1.30;;;1.03;;
68583;SDS011;55557;49.220;11.150;2022-09-02T08:36:02;2.40;;;1.20;;
68583;SDS011;55557;49.220;11.150;2022-09-02T08:38:28;4.13;;;1.00;;
68583;SDS011;55557;49.220;11.150;2022-09-02T08:40:54;2.43;;;1.00;;
68583;SDS011;55557;49.220;11.150;2022-09-02T08:45:49;2.30;;;1.17;;
68583;SDS011;55557;49.220;11.150;2022-09-02T08:48:18;2.20;;;0.93;;
68583;SDS011;55557;49.220;11.150;2022-09-02T08:50:45;1.70;;;1.00;;
68583;SDS011;55557;49.220;11.150;2022-09-02T08:55:45;0.80;;;0.80;;
68583;SDS011;55557;49.220;11.150;2022-09-02T08:58:16;1.37;;;0.90;;
68583;SDS011;55557;49.220;11.150;2022-09-02T09:00:43;2.30;;;0.80;;
68583;SDS011;55557;49.220;11.150;2022-09-02T09:03:27;1.07;;;0.83;;
68583;SDS011;55557;49.220;11.150;2022-09-02T09:06:15;1.20;;;0.80;;
68583;SDS011;55557;49.220;11.150;2022-09-02T09:19:00;1.63;;;1.10;;
68583;SDS011;55557;49.220;11.150;2022-09-02T09:21:26;3.50;;;1.00;;
68583;SDS011;55557;49.220;11.150;2022-09-02T09:23:55;0.90;;;0.70;;
68583;SDS011;55557;49.220;11.150;2022-09-02T09:26:28;0.97;;;0.77;;
68583;SDS011;55557;49.220;11.150;2022-09-02T09:28:54;0.80;;;0.70;;
68583;SDS011;55557;49.220;11.150;2022-09-02T09:31:29;2.60;;;0.90;;
68583;SDS011;55557;49.220;11.150;2022-09-02T09:33:58;0.70;;;0.70;;
68583;SDS011;55557;49.220;11.150;2022-09-02T09:41:44;0.60;;;0.60;;
68583;SDS011;55557;49.220;11.150;2022-09-02T09:44:10;0.77;;;0.70;;
68583;SDS011;55557;49.220;11.150;2022-09-02T09:46:36;1.03;;;0.77;;
68583;SDS011;55557;49.220;11.150;2022-09-02T09:49:03;2.50;;;1.10;;
68583;SDS011;55557;49.220;11.150;2022-09-02T09:51:29;1.80;;;1.10;;
68583;SDS011;55557;49.220;11.150;2022-09-02T09:54:12;1.00;;;0.80;;
68583;SDS011;55557;49.220;11.150;2022-09-02T09:56:39;3.77;;;1.17;;
68583;SDS011;55557;49.220;11.150;2022-09-02T09:59:06;1.43;;;1.10;;
68583;SDS011;55557;49.220;11.150;2022-09-02T10:01:32;2.87;;;0.97;;
68583;SDS011;55557;49.220;11.150;2022-09-02T10:04:03;1.07;;;0.90;;
68583;SDS011;55557;49.220;11.150;2022-09-02T10:08:58;1.83;;;1.10;;
68583;SDS011;55557;49.220;11.150;2022-09-02T10:11:34;1.80;;;0.70;;
68583;SDS011;55557;49.220;11.150;2022-09-02T10:14:02;2.53;;;0.90;;
68583;SDS011;55557;49.220;11.150;2022-09-02T10:16:35;2.20;;;0.97;;
68583;SDS011;55557;49.220;11.150;2022-09-02T10:24:30;1.87;;;1.10;;
68583;SDS011;55557;49.220;11.150;2022-09-02T10:26:58;1.53;;;1.40;;
68583;SDS011;55557;49.220;11.150;2022-09-02T10:40:05;1.40;;;0.90;;
68583;SDS011;55557;49.220;11.150;2022-09-02T10:47:37;1.40;;;0.80;;
68583;SDS011;55557;49.220;11.150;2022-09-02T10:58:01;1.03;;;0.87;;
68583;SDS011;55557;49.220;11.150;2022-09-02T11:00:28;0.77;;;0.70;;
68583;SDS011;55557;49.220;11.150;2022-09-02T11:05:33;0.80;;;0.80;;
68583;SDS011;55557;49.220;11.150;2022-09-02T11:08:02;1.83;;;0.80;;
68583;SDS011;55557;49.220;11.150;2022-09-02T11:10:36;1.10;;;0.83;;
68583;SDS011;55557;49.220;11.150;2022-09-02T11:13:10;2.40;;;1.07;;
68583;SDS011;55557;49.220;11.150;2022-09-02T11:15:42;1.87;;;0.63;;
68583;SDS011;55557;49.220;11.150;2022-09-02T11:21:02;2.00;;;0.97;;
68583;SDS011;55557;49.220;11.150;2022-09-02T11:31:11;2.83;;;1.00;;
68583;SDS011;55557;49.220;11.150;2022-09-02T11:33:49;0.97;;;0.70;;
68583;SDS011;55557;49.220;11.150;2022-09-02T11:36:16;5.33;;;1.20;;
68583;SDS011;55557;49.220;11.150;2022-09-02T11:38:48;0.93;;;0.87;;
68583;SDS011;55557;49.220;11.150;2022-09-02T11:44:00;1.93;;;0.80;;
68583;SDS011;55557;49.220;11.150;2022-09-02T11:53:49;0.70;;;0.67;;
68583;SDS011;55557;49.220;11.150;2022-09-02T11:56:20;1.07;;;0.70;;
68583;SDS011;55557;49.220;11.150;2022-09-02T11:58:49;1.07;;;0.87;;
68583;SDS011;55557;49.220;11.150;2022-09-02T12:04:31;0.70;;;0.70;;
68583;SDS011;55557;49.220;11.150;2022-09-02T12:12:08;1.80;;;0.70;;
68583;SDS011;55557;49.220;11.150;2022-09-02T12:17:07;1.67;;;0.80;;
68583;SDS011;55557;49.220;11.150;2022-09-02T12:24:49;1.37;;;0.80;;
68583;SDS011;55557;49.220;11.150;2022-09-02T12:27:26;1.50;;;0.97;;
68583;SDS011;55557;49.220;11.150;2022-09-02T12:29:52;1.97;;;0.80;;
68583;SDS011;55557;49.220;11.150;2022-09-02T12:35:07;0.83;;;0.60;;
68583;SDS011;55557;49.220;11.150;2022-09-02T12:40:32;5.20;;;0.70;;
68583;SDS011;55557;49.220;11.150;2022-09-02T12:43:01;1.23;;;0.67;;
68583;SDS011;55557;49.220;11.150;2022-09-02T12:45:30;2.50;;;0.80;;
68583;SDS011;55557;49.220;11.150;2022-09-02T12:48:00;1.17;;;0.70;;
68583;SDS011;55557;49.220;11.150;2022-09-02T12:58:25;2.77;;;0.90;;
68583;SDS011;55557;49.220;11.150;2022-09-02T13:01:04;1.13;;;0.60;;
68583;SDS011;55557;49.220;11.150;2022-09-02T13:24:33;1.50;;;1.00;;
68583;SDS011;55557;49.220;11.150;2022-09-02T13:27:12;3.70;;;0.73;;
68583;SDS011;55557;49.220;11.150;2022-09-02T13:34:43;0.70;;;0.70;;
68583;SDS011;55557;49.220;11.150;2022-09-02T13:37:29;1.40;;;0.87;;
68583;SDS011;55557;49.220;11.150;2022-09-02T13:39:55;1.20;;;0.80;;
68583;SDS011;55557;49.220;11.150;2022-09-02T13:42:23;3.43;;;1.00;;
68583;SDS011;55557;49.220;11.150;2022-09-02T13:44:49;2.87;;;1.10;;
68583;SDS011;55557;49.220;11.150;2022-09-02T13:47:16;0.87;;;0.77;;
68583;SDS011;55557;49.220;11.150;2022-09-02T13:49:44;1.40;;;0.83;;
68583;SDS011;55557;49.220;11.150;2022-09-02T13:52:13;3.67;;;1.30;;
68583;SDS011;55557;49.220;11.150;2022-09-02T13:54:42;0.50;;;0.50;;
68583;SDS011;55557;49.220;11.150;2022-09-02T13:57:10;0.77;;;0.43;;
68583;SDS011;55557;49.220;11.150;2022-09-02T13:59:38;1.20;;;0.70;;
68583;SDS011;55557;49.220;11.150;2022-09-02T14:04:52;1.03;;;0.77;;
68583;SDS011;55557;49.220;11.150;2022-09-02T14:07:21;4.40;;;0.63;;
68583;SDS011;55557;49.220;11.150;2022-09-02T14:09:49;1.00;;;0.80;;
68583;SDS011;55557;49.220;11.150;2022-09-02T14:12:16;1.87;;;1.20;;
68583;SDS011;55557;49.220;11.150;2022-09-02T14:14:43;1.70;;;0.93;;
68583;SDS011;55557;49.220;11.150;2022-09-02T14:17:19;0.73;;;0.63;;
68583;SDS011;55557;49.220;11.150;2022-09-02T14:19:46;4.73;;;0.80;;
68583;SDS011;55557;49.220;11.150;2022-09-02T14:22:28;2.40;;;0.67;;
68583;SDS011;55557;49.220;11.150;2022-09-02T14:24:55;1.17;;;0.97;;
68583;SDS011;55557;49.220;11.150;2022-09-02T14:27:21;0.83;;;0.57;;
68583;SDS011;55557;49.220;11.150;2022-09-02T14:29:50;2.60;;;0.90;;
68583;SDS011;55557;49.220;11.150;2022-09-02T14:32:22;0.93;;;0.80;;
68583;SDS011;55557;49.220;11.150;2022-09-02T14:35:07;0.57;;;0.57;;
68583;SDS011;55557;49.220;11.150;2022-09-02T14:37:33;3.20;;;0.93;;
68583;SDS011;55557;49.220;11.150;2022-09-02T14:40:11;2.30;;;0.80;;
68583;SDS011;55557;49.220;11.150;2022-09-02T14:42:50;0.90;;;0.70;;
68583;SDS011;55557;49.220;11.150;2022-09-02T14:47:51;0.60;;;0.60;;
68583;SDS011;55557;49.220;11.150;2022-09-02T14:50:18;2.13;;;0.83;;
68583;SDS011;55557;49.220;11.150;2022-09-02T14:52:47;3.20;;;0.90;;
68583;SDS011;55557;49.220;11.150;2022-09-02T14:58:02;1.23;;;0.80;;
68583;SDS011;55557;49.220;11.150;2022-09-02T15:00:28;1.03;;;0.53;;
68583;SDS011;55557;49.220;11.150;2022-09-02T15:02:55;0.93;;;0.70;;
68583;SDS011;55557;49.220;11.150;2022-09-02T15:05:24;1.13;;;0.80;;
68583;SDS011;55557;49.220;11.150;2022-09-02T15:07:50;0.80;;;0.50;;
68583;SDS011;55557;49.220;11.150;2022-09-02T15:10:16;2.27;;;0.80;;
68583;SDS011;55557;49.220;11.150;2022-09-02T15:12:45;0.80;;;0.80;;
68583;SDS011;55557;49.220;11.150;2022-09-02T15:15:13;1.40;;;0.87;;
68583;SDS011;55557;49.220;11.150;2022-09-02T15:17:39;1.63;;;0.70;;
68583;SDS011;55557;49.220;11.150;2022-09-02T15:20:05;2.43;;;0.73;;
68583;SDS011;55557;49.220;11.150;2022-09-02T15:22:32;1.50;;;0.70;;
68583;SDS011;55557;49.220;11.150;2022-09-02T15:24:58;1.53;;;1.10;;
68583;SDS011;55557;49.220;11.150;2022-09-02T15:27:24;1.70;;;0.90;;
68583;SDS011;55557;49.220;11.150;2022-09-02T15:29:50;1.40;;;0.60;;
68583;SDS011;55557;49.220;11.150;2022-09-02T15:32:17;1.17;;;0.80;;
68583;SDS011;55557;49.220;11.150;2022-09-02T15:34:43;0.97;;;0.60;;
68583;SDS011;55557;49.220;11.150;2022-09-02T15:37:09;0.77;;;0.70;;
68583;SDS011;55557;49.220;11.150;2022-09-02T15:39:35;5.00;;;1.07;;
68583;SDS011;55557;49.220;11.150;2022-09-02T15:42:01;1.70;;;0.60;;
68583;SDS011;55557;49.220;11.150;2022-09-02T15:44:27;0.50;;;0.40;;
68583;SDS011;55557;49.220;11.150;2022-09-02T15:47:05;1.17;;;0.77;;
68583;SDS011;55557;49.220;11.150;2022-09-02T15:49:31;1.37;;;0.70;;
68583;SDS011;55557;49.220;11.150;2022-09-02T15:51:57;0.50;;;0.50;;
68583;SDS011;55557;49.220;11.150;2022-09-02T15:54:24;2.37;;;0.90;;
68583;SDS011;55557;49.220;11.150;2022-09-02T15:56:54;3.37;;;0.50;;
68583;SDS011;55557;49.220;11.150;2022-09-02T15:59:20;1.33;;;0.63;;
68583;SDS011;55557;49.220;11.150;2022-09-02T16:01:47;1.90;;;0.63;;
68583;SDS011;55557;49.220;11.150;2022-09-02T16:04:13;3.03;;;0.83;;
68583;SDS011;55557;49.220;11.150;2022-09-02T16:06:41;0.77;;;0.60;;
68583;SDS011;55557;49.220;11.150;2022-09-02T16:09:09;3.07;;;0.90;;
68583;SDS011;55557;49.220;11.150;2022-09-02T16:11:36;1.13;;;1.00;;
68583;SDS011;55557;49.220;11.150;2022-09-02T16:14:02;1.23;;;0.50;;
68583;SDS011;55557;49.220;11.150;2022-09-02T16:16:28;1.63;;;0.80;;
68583;SDS011;55557;49.220;11.150;2022-09-02T16:18:55;1.87;;;0.73;;
68583;SDS011;55557;49.220;11.150;2022-09-02T16:21:21;3.17;;;0.77;;
68583;SDS011;55557;49.220;11.150;2022-09-02T16:23:47;0.83;;;0.80;;
68583;SDS011;55557;49.220;11.150;2022-09-02T16:26:15;2.47;;;0.70;;
68583;SDS011;55557;49.220;11.150;2022-09-02T16:28:45;2.43;;;0.80;;
68583;SDS011;55557;49.220;11.150;2022-09-02T16:31:13;0.80;;;0.60;;
68583;SDS011;55557;49.220;11.150;2022-09-02T16:33:41;0.97;;;0.70;;
68583;SDS011;55557;49.220;11.150;2022-09-02T16:36:07;3.37;;;0.97;;
68583;SDS011;55557;49.220;11.150;2022-09-02T16:38:34;3.00;;;0.93;;
68583;SDS011;55557;49.220;11.150;2022-09-02T16:41:00;0.80;;;0.60;;
68583;SDS011;55557;49.220;11.150;2022-09-02T16:43:26;0.80;;;0.60;;
68583;SDS011;55557;49.220;11.150;2022-09-02T16:45:52;1.17;;;1.00;;
68583;SDS011;55557;49.220;11.150;2022-09-02T16:48:19;0.90;;;0.70;;
68583;SDS011;55557;49.220;11.150;2022-09-02T16:50:46;1.93;;;0.90;;
68583;SDS011;55557;49.220;11.150;2022-09-02T16:53:12;0.57;;;0.40;;
68583;SDS011;55557;49.220;11.150;2022-09-02T16:55:39;0.77;;;0.73;;
68583;SDS011;55557;49.220;11.150;2022-09-02T16:58:06;3.93;;;1.37;;
68583;SDS011;55557;49.220;11.150;2022-09-02T17:00:34;1.60;;;0.93;;